sensor_id;sensor_type;location;lat;lon;timestamp;P1;durP1;ratioP1;P2;durP2;ratioP2
4812;SDS011;2420;51.202;8.698;2024-03-29T00:02:02;3.78;;;1.73;;
4812;SDS011;2420;51.202;8.698;2024-03-29T00:04:28;4.57;;;1.40;;
4812;SDS011;2420;51.202;8.698;2024-03-29T00:06:54;4.03;;;1.60;;
4812;SDS011;2420;51.202;8.698;2024-03-29T00:09:19;2.72;;;1.65;;
4812;SDS011;2420;51.202;8.698;2024-03-29T00:11:45;2.97;;;1.75;;
4812;SDS011;2420;51.202;8.698;2024-03-29T00:14:11;1.67;;;1.20;;
4812;SDS011;2420;51.202;8.698;2024-03-29T00:16:37;3.25;;;1.55;;
4812;SDS011;2420;51.202;8.698;2024-03-29T00:19:02;2.83;;;1.60;;
4812;SDS011;2420;51.202;8.698;2024-03-29T00:21:28;1.88;;;1.48;;
4812;SDS011;2420;51.202;8.698;2024-03-29T00:23:53;3.58;;;2.33;;
4812;SDS011;2420;51.202;8.698;2024-03-29T00:26:19;5.28;;;2.17;;
4812;SDS011;2420;51.202;8.698;2024-03-29T00:28:44;3.83;;;2.40;;
4812;SDS011;2420;51.202;8.698;2024-03-29T00:31:10;3.85;;;2.70;;
4812;SDS011;2420;51.202;8.698;2024-03-29T00:33:35;4.78;;;3.08;;
4812;SDS011;2420;51.202;8.698;2024-03-29T00:36:01;6.68;;;3.17;;
4812;SDS011;2420;51.202;8.698;2024-03-29T00:38:27;4.72;;;2.80;;
4812;SDS011;2420;51.202;8.698;2024-03-29T00:40:53;4.00;;;2.90;;
4812;SDS011;2420;51.202;8.698;2024-03-29T00:43:18;3.67;;;2.63;;
4812;SDS011;2420;51.202;8.698;2024-03-29T00:45:44;4.35;;;2.70;;
4812;SDS011;2420;51.202;8.698;2024-03-29T00:48:09;4.13;;;2.92;;
4812;SDS011;2420;51.202;8.698;2024-03-29T00:50:35;8.25;;;4.93;;
4812;SDS011;2420;51.202;8.698;2024-03-29T00:53:02;6.95;;;5.07;;
4812;SDS011;2420;51.202;8.698;2024-03-29T00:55:29;8.38;;;5.47;;
4812;SDS011;2420;51.202;8.698;2024-03-29T00:57:55;7.00;;;5.72;;
4812;SDS011;2420;51.202;8.698;2024-03-29T01:00:20;8.52;;;5.65;;
4812;SDS011;2420;51.202;8.698;2024-03-29T01:02:46;13.40;;;6.90;;
4812;SDS011;2420;51.202;8.698;2024-03-29T01:05:11;12.93;;;8.18;;
4812;SDS011;2420;51.202;8.698;2024-03-29T01:07:39;11.43;;;7.40;;
4812;SDS011;2420;51.202;8.698;2024-03-29T01:10:05;9.45;;;5.30;;
4812;SDS011;2420;51.202;8.698;2024-03-29T01:12:33;11.63;;;8.45;;
4812;SDS011;2420;51.202;8.698;2024-03-29T01:14:59;7.20;;;5.70;;
4812;SDS011;2420;51.202;8.698;2024-03-29T01:17:25;6.03;;;4.25;;
4812;SDS011;2420;51.202;8.698;2024-03-29T01:19:50;5.57;;;4.18;;
4812;SDS011;2420;51.202;8.698;2024-03-29T01:22:16;6.57;;;3.85;;
4812;SDS011;2420;51.202;8.698;2024-03-29T01:24:41;5.07;;;3.67;;
4812;SDS011;2420;51.202;8.698;2024-03-29T01:27:07;3.33;;;2.53;;
4812;SDS011;2420;51.202;8.698;2024-03-29T01:29:32;4.40;;;2.40;;
4812;SDS011;2420;51.202;8.698;2024-03-29T01:31:58;4.05;;;2.65;;
4812;SDS011;2420;51.202;8.698;2024-03-29T01:34:23;4.47;;;2.42;;
4812;SDS011;2420;51.202;8.698;2024-03-29T01:36:49;6.68;;;3.90;;
4812;SDS011;2420;51.202;8.698;2024-03-29T01:39:14;3.67;;;2.50;;
4812;SDS011;2420;51.202;8.698;2024-03-29T01:41:43;4.25;;;2.80;;
4812;SDS011;2420;51.202;8.698;2024-03-29T01:44:09;4.03;;;2.78;;
4812;SDS011;2420;51.202;8.698;2024-03-29T01:46:35;5.00;;;3.28;;
4812;SDS011;2420;51.202;8.698;2024-03-29T01:49:01;6.00;;;3.40;;
4812;SDS011;2420;51.202;8.698;2024-03-29T01:51:28;6.15;;;3.67;;
4812;SDS011;2420;51.202;8.698;2024-03-29T01:53:54;6.30;;;3.65;;
4812;SDS011;2420;51.202;8.698;2024-03-29T01:56:21;6.72;;;3.85;;
4812;SDS011;2420;51.202;8.698;2024-03-29T01:58:48;9.38;;;4.93;;
4812;SDS011;2420;51.202;8.698;2024-03-29T02:01:14;7.32;;;4.35;;
4812;SDS011;2420;51.202;8.698;2024-03-29T02:03:41;6.55;;;3.08;;
4812;SDS011;2420;51.202;8.698;2024-03-29T02:06:07;7.95;;;3.30;;
4812;SDS011;2420;51.202;8.698;2024-03-29T02:08:35;5.97;;;3.05;;
4812;SDS011;2420;51.202;8.698;2024-03-29T02:11:01;5.72;;;2.40;;
4812;SDS011;2420;51.202;8.698;2024-03-29T02:13:28;5.82;;;2.95;;
4812;SDS011;2420;51.202;8.698;2024-03-29T02:15:54;5.35;;;2.40;;
4812;SDS011;2420;51.202;8.698;2024-03-29T02:18:20;4.30;;;2.20;;
4812;SDS011;2420;51.202;8.698;2024-03-29T02:20:45;5.07;;;2.45;;
4812;SDS011;2420;51.202;8.698;2024-03-29T02:23:13;4.03;;;2.25;;
4812;SDS011;2420;51.202;8.698;2024-03-29T02:25:44;3.05;;;2.13;;
4812;SDS011;2420;51.202;8.698;2024-03-29T02:28:11;4.70;;;2.55;;
4812;SDS011;2420;51.202;8.698;2024-03-29T02:30:37;5.00;;;2.40;;
4812;SDS011;2420;51.202;8.698;2024-03-29T02:33:03;4.78;;;2.58;;
4812;SDS011;2420;51.202;8.698;2024-03-29T02:35:29;6.22;;;2.50;;
4812;SDS011;2420;51.202;8.698;2024-03-29T02:37:55;5.90;;;2.45;;
4812;SDS011;2420;51.202;8.698;2024-03-29T02:40:21;4.15;;;2.50;;
4812;SDS011;2420;51.202;8.698;2024-03-29T02:42:47;6.57;;;2.67;;
4812;SDS011;2420;51.202;8.698;2024-03-29T02:45:13;5.40;;;2.60;;
4812;SDS011;2420;51.202;8.698;2024-03-29T02:47:39;3.92;;;2.40;;
4812;SDS011;2420;51.202;8.698;2024-03-29T02:50:05;5.43;;;2.58;;
4812;SDS011;2420;51.202;8.698;2024-03-29T02:52:32;3.60;;;2.25;;
4812;SDS011;2420;51.202;8.698;2024-03-29T02:54:58;3.60;;;2.17;;
4812;SDS011;2420;51.202;8.698;2024-03-29T02:57:23;4.75;;;2.10;;
4812;SDS011;2420;51.202;8.698;2024-03-29T02:59:49;4.97;;;2.20;;
4812;SDS011;2420;51.202;8.698;2024-03-29T03:02:14;3.88;;;2.10;;
4812;SDS011;2420;51.202;8.698;2024-03-29T03:04:40;3.65;;;2.15;;
4812;SDS011;2420;51.202;8.698;2024-03-29T03:07:05;4.68;;;1.85;;
4812;SDS011;2420;51.202;8.698;2024-03-29T03:09:51;3.67;;;2.50;;
4812;SDS011;2420;51.202;8.698;2024-03-29T03:12:35;3.67;;;2.67;;
4812;SDS011;2420;51.202;8.698;2024-03-29T03:15:00;4.53;;;3.00;;
4812;SDS011;2420;51.202;8.698;2024-03-29T03:17:26;8.20;;;2.47;;
4812;SDS011;2420;51.202;8.698;2024-03-29T03:19:53;5.78;;;2.15;;
4812;SDS011;2420;51.202;8.698;2024-03-29T03:22:18;3.38;;;2.28;;
4812;SDS011;2420;51.202;8.698;2024-03-29T03:24:44;3.63;;;2.08;;
4812;SDS011;2420;51.202;8.698;2024-03-29T03:27:10;3.22;;;1.92;;
4812;SDS011;2420;51.202;8.698;2024-03-29T03:29:35;3.38;;;2.10;;
4812;SDS011;2420;51.202;8.698;2024-03-29T03:32:01;2.80;;;2.05;;
4812;SDS011;2420;51.202;8.698;2024-03-29T03:34:27;3.53;;;2.65;;
4812;SDS011;2420;51.202;8.698;2024-03-29T03:36:52;4.57;;;2.60;;
4812;SDS011;2420;51.202;8.698;2024-03-29T03:39:18;5.57;;;3.00;;
4812;SDS011;2420;51.202;8.698;2024-03-29T03:41:43;7.93;;;3.10;;
4812;SDS011;2420;51.202;8.698;2024-03-29T03:44:09;6.28;;;3.45;;
4812;SDS011;2420;51.202;8.698;2024-03-29T03:46:34;7.57;;;3.17;;
4812;SDS011;2420;51.202;8.698;2024-03-29T03:49:00;5.75;;;2.72;;
4812;SDS011;2420;51.202;8.698;2024-03-29T03:51:26;7.43;;;2.67;;
4812;SDS011;2420;51.202;8.698;2024-03-29T03:53:51;4.55;;;2.55;;
4812;SDS011;2420;51.202;8.698;2024-03-29T03:56:17;4.80;;;3.03;;
4812;SDS011;2420;51.202;8.698;2024-03-29T03:58:45;5.30;;;3.10;;
4812;SDS011;2420;51.202;8.698;2024-03-29T04:01:11;4.70;;;3.42;;
4812;SDS011;2420;51.202;8.698;2024-03-29T04:03:37;5.35;;;2.83;;
4812;SDS011;2420;51.202;8.698;2024-03-29T04:06:04;6.40;;;2.78;;
4812;SDS011;2420;51.202;8.698;2024-03-29T04:08:30;5.25;;;2.60;;
4812;SDS011;2420;51.202;8.698;2024-03-29T04:10:56;5.80;;;2.40;;
4812;SDS011;2420;51.202;8.698;2024-03-29T04:13:22;6.07;;;2.40;;
4812;SDS011;2420;51.202;8.698;2024-03-29T04:15:47;2.25;;;1.92;;
4812;SDS011;2420;51.202;8.698;2024-03-29T04:18:13;5.55;;;2.22;;
4812;SDS011;2420;51.202;8.698;2024-03-29T04:20:39;3.92;;;2.40;;
4812;SDS011;2420;51.202;8.698;2024-03-29T04:23:04;5.10;;;2.55;;
4812;SDS011;2420;51.202;8.698;2024-03-29T04:25:30;4.68;;;2.40;;
4812;SDS011;2420;51.202;8.698;2024-03-29T04:27:56;5.18;;;2.33;;
4812;SDS011;2420;51.202;8.698;2024-03-29T04:30:21;4.45;;;2.33;;
4812;SDS011;2420;51.202;8.698;2024-03-29T04:32:47;4.22;;;2.20;;
4812;SDS011;2420;51.202;8.698;2024-03-29T04:35:12;3.92;;;2.35;;
4812;SDS011;2420;51.202;8.698;2024-03-29T04:37:38;4.25;;;3.10;;
4812;SDS011;2420;51.202;8.698;2024-03-29T04:40:04;3.60;;;2.55;;
4812;SDS011;2420;51.202;8.698;2024-03-29T04:42:31;4.60;;;2.25;;
4812;SDS011;2420;51.202;8.698;2024-03-29T04:44:56;3.72;;;2.08;;
4812;SDS011;2420;51.202;8.698;2024-03-29T04:47:22;3.20;;;2.00;;
4812;SDS011;2420;51.202;8.698;2024-03-29T04:49:47;3.20;;;2.00;;
4812;SDS011;2420;51.202;8.698;2024-03-29T04:52:13;4.47;;;2.15;;
4812;SDS011;2420;51.202;8.698;2024-03-29T04:54:38;4.25;;;2.00;;
4812;SDS011;2420;51.202;8.698;2024-03-29T04:57:04;2.95;;;1.88;;
4812;SDS011;2420;51.202;8.698;2024-03-29T04:59:33;2.80;;;1.77;;
4812;SDS011;2420;51.202;8.698;2024-03-29T05:01:59;4.75;;;2.05;;
4812;SDS011;2420;51.202;8.698;2024-03-29T05:04:25;5.60;;;1.92;;
4812;SDS011;2420;51.202;8.698;2024-03-29T05:06:51;6.43;;;2.20;;
4812;SDS011;2420;51.202;8.698;2024-03-29T05:09:17;3.10;;;2.00;;
4812;SDS011;2420;51.202;8.698;2024-03-29T05:11:43;3.92;;;2.05;;
4812;SDS011;2420;51.202;8.698;2024-03-29T05:14:08;4.30;;;2.10;;
4812;SDS011;2420;51.202;8.698;2024-03-29T05:16:35;3.28;;;1.90;;
4812;SDS011;2420;51.202;8.698;2024-03-29T05:19:00;4.05;;;1.95;;
4812;SDS011;2420;51.202;8.698;2024-03-29T05:21:26;3.63;;;1.95;;
4812;SDS011;2420;51.202;8.698;2024-03-29T05:23:51;3.88;;;2.00;;
4812;SDS011;2420;51.202;8.698;2024-03-29T05:26:18;4.20;;;2.22;;
4812;SDS011;2420;51.202;8.698;2024-03-29T05:28:43;2.40;;;1.70;;
4812;SDS011;2420;51.202;8.698;2024-03-29T05:31:12;3.42;;;1.80;;
4812;SDS011;2420;51.202;8.698;2024-03-29T05:33:40;4.18;;;1.90;;
4812;SDS011;2420;51.202;8.698;2024-03-29T05:36:10;6.05;;;2.00;;
4812;SDS011;2420;51.202;8.698;2024-03-29T05:38:38;4.43;;;1.80;;
4812;SDS011;2420;51.202;8.698;2024-03-29T05:41:04;2.42;;;1.80;;
4812;SDS011;2420;51.202;8.698;2024-03-29T05:43:29;3.30;;;1.73;;
4812;SDS011;2420;51.202;8.698;2024-03-29T05:45:55;3.53;;;1.90;;
4812;SDS011;2420;51.202;8.698;2024-03-29T05:48:21;3.97;;;1.88;;
4812;SDS011;2420;51.202;8.698;2024-03-29T05:50:47;4.28;;;1.70;;
4812;SDS011;2420;51.202;8.698;2024-03-29T05:53:13;6.45;;;1.98;;
4812;SDS011;2420;51.202;8.698;2024-03-29T05:55:38;3.10;;;1.83;;
4812;SDS011;2420;51.202;8.698;2024-03-29T05:58:04;3.95;;;1.77;;
4812;SDS011;2420;51.202;8.698;2024-03-29T06:00:31;4.22;;;2.20;;
4812;SDS011;2420;51.202;8.698;2024-03-29T06:02:59;5.05;;;2.33;;
4812;SDS011;2420;51.202;8.698;2024-03-29T06:05:27;3.33;;;2.00;;
4812;SDS011;2420;51.202;8.698;2024-03-29T06:07:53;5.32;;;2.30;;
4812;SDS011;2420;51.202;8.698;2024-03-29T06:10:18;4.75;;;2.17;;
4812;SDS011;2420;51.202;8.698;2024-03-29T06:12:44;3.85;;;2.20;;
4812;SDS011;2420;51.202;8.698;2024-03-29T06:15:09;5.72;;;2.10;;
4812;SDS011;2420;51.202;8.698;2024-03-29T06:17:54;4.43;;;2.13;;
4812;SDS011;2420;51.202;8.698;2024-03-29T06:20:19;6.28;;;1.80;;
4812;SDS011;2420;51.202;8.698;2024-03-29T06:22:45;4.55;;;1.98;;
4812;SDS011;2420;51.202;8.698;2024-03-29T06:25:10;4.45;;;1.77;;
4812;SDS011;2420;51.202;8.698;2024-03-29T06:27:36;3.13;;;1.95;;
4812;SDS011;2420;51.202;8.698;2024-03-29T06:30:03;2.85;;;1.83;;
4812;SDS011;2420;51.202;8.698;2024-03-29T06:32:32;3.22;;;1.85;;
4812;SDS011;2420;51.202;8.698;2024-03-29T06:34:58;3.72;;;1.73;;
4812;SDS011;2420;51.202;8.698;2024-03-29T06:37:24;5.35;;;2.05;;
4812;SDS011;2420;51.202;8.698;2024-03-29T06:39:50;3.55;;;1.88;;
4812;SDS011;2420;51.202;8.698;2024-03-29T06:42:16;2.83;;;1.85;;
4812;SDS011;2420;51.202;8.698;2024-03-29T06:44:42;3.08;;;1.80;;
4812;SDS011;2420;51.202;8.698;2024-03-29T06:47:08;6.40;;;2.72;;
4812;SDS011;2420;51.202;8.698;2024-03-29T06:49:33;5.50;;;3.38;;
4812;SDS011;2420;51.202;8.698;2024-03-29T06:51:59;3.45;;;2.00;;
4812;SDS011;2420;51.202;8.698;2024-03-29T06:54:26;5.38;;;1.88;;
4812;SDS011;2420;51.202;8.698;2024-03-29T06:56:55;7.15;;;2.00;;
4812;SDS011;2420;51.202;8.698;2024-03-29T06:59:21;4.00;;;1.88;;
4812;SDS011;2420;51.202;8.698;2024-03-29T07:01:48;5.22;;;1.88;;
4812;SDS011;2420;51.202;8.698;2024-03-29T07:04:17;3.17;;;2.00;;
4812;SDS011;2420;51.202;8.698;2024-03-29T07:06:47;4.32;;;2.17;;
4812;SDS011;2420;51.202;8.698;2024-03-29T07:09:13;3.80;;;2.13;;
4812;SDS011;2420;51.202;8.698;2024-03-29T07:11:39;5.03;;;1.98;;
4812;SDS011;2420;51.202;8.698;2024-03-29T07:14:05;4.38;;;2.25;;
4812;SDS011;2420;51.202;8.698;2024-03-29T07:16:31;4.47;;;1.92;;
4812;SDS011;2420;51.202;8.698;2024-03-29T07:18:56;4.75;;;2.17;;
4812;SDS011;2420;51.202;8.698;2024-03-29T07:21:22;4.72;;;2.08;;
4812;SDS011;2420;51.202;8.698;2024-03-29T07:23:49;4.47;;;2.20;;
4812;SDS011;2420;51.202;8.698;2024-03-29T07:26:14;3.25;;;1.98;;
4812;SDS011;2420;51.202;8.698;2024-03-29T07:28:40;2.53;;;2.10;;
4812;SDS011;2420;51.202;8.698;2024-03-29T07:31:06;4.85;;;2.38;;
4812;SDS011;2420;51.202;8.698;2024-03-29T07:33:32;4.25;;;2.00;;
4812;SDS011;2420;51.202;8.698;2024-03-29T07:35:58;3.58;;;1.85;;
4812;SDS011;2420;51.202;8.698;2024-03-29T07:38:23;2.70;;;1.63;;
4812;SDS011;2420;51.202;8.698;2024-03-29T07:40:52;5.00;;;2.30;;
4812;SDS011;2420;51.202;8.698;2024-03-29T07:43:19;3.88;;;1.98;;
4812;SDS011;2420;51.202;8.698;2024-03-29T07:45:45;6.28;;;2.05;;
4812;SDS011;2420;51.202;8.698;2024-03-29T07:48:11;4.03;;;1.77;;
4812;SDS011;2420;51.202;8.698;2024-03-29T07:50:38;3.47;;;2.40;;
4812;SDS011;2420;51.202;8.698;2024-03-29T07:53:08;5.93;;;2.42;;
4812;SDS011;2420;51.202;8.698;2024-03-29T07:55:34;3.88;;;2.40;;
4812;SDS011;2420;51.202;8.698;2024-03-29T07:58:01;4.80;;;2.30;;
4812;SDS011;2420;51.202;8.698;2024-03-29T08:00:26;4.25;;;2.78;;
4812;SDS011;2420;51.202;8.698;2024-03-29T08:02:52;3.85;;;2.20;;
4812;SDS011;2420;51.202;8.698;2024-03-29T08:05:19;2.75;;;2.25;;
4812;SDS011;2420;51.202;8.698;2024-03-29T08:07:45;3.03;;;2.30;;
4812;SDS011;2420;51.202;8.698;2024-03-29T08:10:11;5.60;;;3.00;;
4812;SDS011;2420;51.202;8.698;2024-03-29T08:12:36;3.10;;;2.63;;
4812;SDS011;2420;51.202;8.698;2024-03-29T08:15:02;3.42;;;2.85;;
4812;SDS011;2420;51.202;8.698;2024-03-29T08:17:28;4.53;;;2.70;;
4812;SDS011;2420;51.202;8.698;2024-03-29T08:19:54;3.75;;;2.60;;
4812;SDS011;2420;51.202;8.698;2024-03-29T08:22:19;3.42;;;2.90;;
4812;SDS011;2420;51.202;8.698;2024-03-29T08:24:45;6.88;;;3.53;;
4812;SDS011;2420;51.202;8.698;2024-03-29T08:27:11;4.55;;;2.55;;
4812;SDS011;2420;51.202;8.698;2024-03-29T08:29:37;4.38;;;2.58;;
4812;SDS011;2420;51.202;8.698;2024-03-29T08:32:02;6.13;;;3.10;;
4812;SDS011;2420;51.202;8.698;2024-03-29T08:34:28;5.00;;;3.17;;
4812;SDS011;2420;51.202;8.698;2024-03-29T08:36:59;4.43;;;3.00;;
4812;SDS011;2420;51.202;8.698;2024-03-29T08:39:26;4.25;;;2.80;;
4812;SDS011;2420;51.202;8.698;2024-03-29T08:41:51;3.50;;;2.78;;
4812;SDS011;2420;51.202;8.698;2024-03-29T08:44:17;3.45;;;2.67;;
4812;SDS011;2420;51.202;8.698;2024-03-29T08:46:43;3.97;;;2.90;;
4812;SDS011;2420;51.202;8.698;2024-03-29T08:49:08;3.25;;;2.72;;
4812;SDS011;2420;51.202;8.698;2024-03-29T08:51:34;5.28;;;3.00;;
4812;SDS011;2420;51.202;8.698;2024-03-29T08:53:59;3.67;;;3.10;;
4812;SDS011;2420;51.202;8.698;2024-03-29T08:56:29;4.28;;;3.15;;
4812;SDS011;2420;51.202;8.698;2024-03-29T08:58:55;4.25;;;3.20;;
4812;SDS011;2420;51.202;8.698;2024-03-29T09:01:20;4.50;;;3.00;;
4812;SDS011;2420;51.202;8.698;2024-03-29T09:03:46;4.75;;;2.90;;
4812;SDS011;2420;51.202;8.698;2024-03-29T09:06:11;3.67;;;3.00;;
4812;SDS011;2420;51.202;8.698;2024-03-29T09:08:37;2.78;;;2.50;;
4812;SDS011;2420;51.202;8.698;2024-03-29T09:11:03;4.45;;;2.83;;
4812;SDS011;2420;51.202;8.698;2024-03-29T09:13:29;5.88;;;3.13;;
4812;SDS011;2420;51.202;8.698;2024-03-29T09:15:55;4.68;;;3.08;;
4812;SDS011;2420;51.202;8.698;2024-03-29T09:18:21;8.63;;;3.00;;
4812;SDS011;2420;51.202;8.698;2024-03-29T09:21:01;3.60;;;2.90;;
4812;SDS011;2420;51.202;8.698;2024-03-29T09:23:27;4.55;;;2.75;;
4812;SDS011;2420;51.202;8.698;2024-03-29T09:25:56;3.00;;;2.65;;
4812;SDS011;2420;51.202;8.698;2024-03-29T09:28:22;3.33;;;2.70;;
4812;SDS011;2420;51.202;8.698;2024-03-29T09:30:48;3.20;;;2.55;;
4812;SDS011;2420;51.202;8.698;2024-03-29T09:33:14;2.78;;;2.45;;
4812;SDS011;2420;51.202;8.698;2024-03-29T09:35:40;3.38;;;2.85;;
4812;SDS011;2420;51.202;8.698;2024-03-29T09:38:05;4.00;;;2.65;;
4812;SDS011;2420;51.202;8.698;2024-03-29T09:40:31;3.92;;;2.60;;
4812;SDS011;2420;51.202;8.698;2024-03-29T09:42:59;3.75;;;2.70;;
4812;SDS011;2420;51.202;8.698;2024-03-29T09:45:28;6.07;;;3.55;;
4812;SDS011;2420;51.202;8.698;2024-03-29T09:47:59;4.15;;;2.90;;
4812;SDS011;2420;51.202;8.698;2024-03-29T09:50:27;3.65;;;2.83;;
4812;SDS011;2420;51.202;8.698;2024-03-29T09:52:53;3.83;;;3.03;;
4812;SDS011;2420;51.202;8.698;2024-03-29T09:55:21;4.85;;;3.30;;
4812;SDS011;2420;51.202;8.698;2024-03-29T09:57:48;5.38;;;4.43;;
4812;SDS011;2420;51.202;8.698;2024-03-29T10:00:14;6.95;;;5.43;;
4812;SDS011;2420;51.202;8.698;2024-03-29T10:02:39;7.47;;;5.32;;
4812;SDS011;2420;51.202;8.698;2024-03-29T10:05:06;6.60;;;3.78;;
4812;SDS011;2420;51.202;8.698;2024-03-29T10:07:33;4.75;;;3.90;;
4812;SDS011;2420;51.202;8.698;2024-03-29T10:10:01;4.15;;;3.50;;
4812;SDS011;2420;51.202;8.698;2024-03-29T10:12:28;4.40;;;3.85;;
4812;SDS011;2420;51.202;8.698;2024-03-29T10:14:54;5.07;;;3.83;;
4812;SDS011;2420;51.202;8.698;2024-03-29T10:17:30;5.10;;;4.35;;
4812;SDS011;2420;51.202;8.698;2024-03-29T10:19:58;5.18;;;4.00;;
4812;SDS011;2420;51.202;8.698;2024-03-29T10:22:28;6.63;;;4.20;;
4812;SDS011;2420;51.202;8.698;2024-03-29T10:24:56;7.22;;;4.28;;
4812;SDS011;2420;51.202;8.698;2024-03-29T10:27:24;5.95;;;4.25;;
4812;SDS011;2420;51.202;8.698;2024-03-29T10:29:54;6.25;;;4.40;;
4812;SDS011;2420;51.202;8.698;2024-03-29T10:32:20;5.45;;;4.78;;
4812;SDS011;2420;51.202;8.698;2024-03-29T10:34:48;4.50;;;4.10;;
4812;SDS011;2420;51.202;8.698;2024-03-29T10:37:14;5.30;;;4.60;;
4812;SDS011;2420;51.202;8.698;2024-03-29T10:39:42;5.10;;;4.18;;
4812;SDS011;2420;51.202;8.698;2024-03-29T10:42:08;7.05;;;4.30;;
4812;SDS011;2420;51.202;8.698;2024-03-29T10:44:36;12.30;;;8.50;;
4812;SDS011;2420;51.202;8.698;2024-03-29T10:47:06;6.22;;;4.80;;
4812;SDS011;2420;51.202;8.698;2024-03-29T10:49:34;4.68;;;4.18;;
4812;SDS011;2420;51.202;8.698;2024-03-29T10:52:01;4.35;;;3.95;;
4812;SDS011;2420;51.202;8.698;2024-03-29T10:54:29;4.50;;;4.05;;
4812;SDS011;2420;51.202;8.698;2024-03-29T10:56:59;4.28;;;3.88;;
4812;SDS011;2420;51.202;8.698;2024-03-29T10:59:31;4.78;;;3.70;;
4812;SDS011;2420;51.202;8.698;2024-03-29T11:02:10;5.25;;;3.95;;
4812;SDS011;2420;51.202;8.698;2024-03-29T11:04:38;5.40;;;4.05;;
4812;SDS011;2420;51.202;8.698;2024-03-29T11:07:06;4.10;;;3.70;;
4812;SDS011;2420;51.202;8.698;2024-03-29T11:09:35;4.78;;;3.90;;
4812;SDS011;2420;51.202;8.698;2024-03-29T11:12:04;4.03;;;3.63;;
4812;SDS011;2420;51.202;8.698;2024-03-29T11:14:42;5.18;;;3.83;;
4812;SDS011;2420;51.202;8.698;2024-03-29T11:17:10;4.50;;;3.70;;
4812;SDS011;2420;51.202;8.698;2024-03-29T11:19:37;5.22;;;3.45;;
4812;SDS011;2420;51.202;8.698;2024-03-29T11:22:03;5.63;;;3.33;;
4812;SDS011;2420;51.202;8.698;2024-03-29T11:24:29;7.03;;;3.92;;
4812;SDS011;2420;51.202;8.698;2024-03-29T11:26:57;5.75;;;4.00;;
4812;SDS011;2420;51.202;8.698;2024-03-29T11:29:23;5.65;;;3.88;;
4812;SDS011;2420;51.202;8.698;2024-03-29T11:31:58;4.07;;;3.67;;
4812;SDS011;2420;51.202;8.698;2024-03-29T11:34:24;5.00;;;3.30;;
4812;SDS011;2420;51.202;8.698;2024-03-29T11:36:50;5.63;;;3.28;;
4812;SDS011;2420;51.202;8.698;2024-03-29T11:39:20;4.95;;;3.20;;
4812;SDS011;2420;51.202;8.698;2024-03-29T11:41:46;5.18;;;3.20;;
4812;SDS011;2420;51.202;8.698;2024-03-29T11:44:13;4.60;;;3.35;;
4812;SDS011;2420;51.202;8.698;2024-03-29T11:46:39;4.50;;;3.70;;
4812;SDS011;2420;51.202;8.698;2024-03-29T11:49:05;4.15;;;3.20;;
4812;SDS011;2420;51.202;8.698;2024-03-29T11:51:31;4.90;;;3.45;;
4812;SDS011;2420;51.202;8.698;2024-03-29T11:53:56;6.05;;;3.40;;
4812;SDS011;2420;51.202;8.698;2024-03-29T11:56:22;4.45;;;3.10;;
4812;SDS011;2420;51.202;8.698;2024-03-29T11:58:48;4.70;;;3.28;;
4812;SDS011;2420;51.202;8.698;2024-03-29T12:01:14;3.85;;;2.92;;
4812;SDS011;2420;51.202;8.698;2024-03-29T12:03:41;4.13;;;3.60;;
4812;SDS011;2420;51.202;8.698;2024-03-29T12:06:08;6.18;;;4.22;;
4812;SDS011;2420;51.202;8.698;2024-03-29T12:08:38;3.40;;;2.70;;
4812;SDS011;2420;51.202;8.698;2024-03-29T12:11:04;3.63;;;2.92;;
4812;SDS011;2420;51.202;8.698;2024-03-29T12:13:30;4.53;;;3.00;;
4812;SDS011;2420;51.202;8.698;2024-03-29T12:15:57;3.65;;;2.90;;
4812;SDS011;2420;51.202;8.698;2024-03-29T12:18:23;3.60;;;2.50;;
4812;SDS011;2420;51.202;8.698;2024-03-29T12:20:50;4.07;;;2.80;;
4812;SDS011;2420;51.202;8.698;2024-03-29T12:23:18;3.20;;;2.90;;
4812;SDS011;2420;51.202;8.698;2024-03-29T12:25:45;4.65;;;2.80;;
4812;SDS011;2420;51.202;8.698;2024-03-29T12:28:12;3.45;;;2.53;;
4812;SDS011;2420;51.202;8.698;2024-03-29T12:30:42;4.68;;;3.20;;
4812;SDS011;2420;51.202;8.698;2024-03-29T12:33:13;4.43;;;2.78;;
4812;SDS011;2420;51.202;8.698;2024-03-29T12:35:41;5.18;;;3.17;;
4812;SDS011;2420;51.202;8.698;2024-03-29T12:38:10;3.88;;;3.10;;
4812;SDS011;2420;51.202;8.698;2024-03-29T12:40:38;4.75;;;3.38;;
4812;SDS011;2420;51.202;8.698;2024-03-29T12:43:05;5.03;;;3.25;;
4812;SDS011;2420;51.202;8.698;2024-03-29T12:45:33;5.35;;;3.55;;
4812;SDS011;2420;51.202;8.698;2024-03-29T12:48:08;6.18;;;3.20;;
4812;SDS011;2420;51.202;8.698;2024-03-29T12:50:39;4.72;;;3.25;;
4812;SDS011;2420;51.202;8.698;2024-03-29T12:53:07;4.38;;;3.00;;
4812;SDS011;2420;51.202;8.698;2024-03-29T12:55:33;4.30;;;3.28;;
4812;SDS011;2420;51.202;8.698;2024-03-29T12:58:01;4.10;;;2.85;;
4812;SDS011;2420;51.202;8.698;2024-03-29T13:00:29;3.28;;;2.88;;
4812;SDS011;2420;51.202;8.698;2024-03-29T13:02:58;4.28;;;3.25;;
4812;SDS011;2420;51.202;8.698;2024-03-29T13:05:24;4.50;;;2.90;;
4812;SDS011;2420;51.202;8.698;2024-03-29T13:07:49;4.68;;;2.95;;
4812;SDS011;2420;51.202;8.698;2024-03-29T13:10:15;3.53;;;2.80;;
4812;SDS011;2420;51.202;8.698;2024-03-29T13:12:44;3.53;;;3.00;;
4812;SDS011;2420;51.202;8.698;2024-03-29T13:15:21;4.63;;;3.30;;
4812;SDS011;2420;51.202;8.698;2024-03-29T13:17:50;5.05;;;3.13;;
4812;SDS011;2420;51.202;8.698;2024-03-29T13:20:17;4.00;;;3.42;;
4812;SDS011;2420;51.202;8.698;2024-03-29T13:22:43;4.22;;;3.30;;
4812;SDS011;2420;51.202;8.698;2024-03-29T13:25:11;4.57;;;3.83;;
4812;SDS011;2420;51.202;8.698;2024-03-29T13:27:38;3.92;;;3.45;;
4812;SDS011;2420;51.202;8.698;2024-03-29T13:30:05;4.55;;;3.42;;
4812;SDS011;2420;51.202;8.698;2024-03-29T13:32:31;4.25;;;3.40;;
4812;SDS011;2420;51.202;8.698;2024-03-29T13:34:58;4.70;;;3.90;;
4812;SDS011;2420;51.202;8.698;2024-03-29T13:37:24;4.78;;;4.07;;
4812;SDS011;2420;51.202;8.698;2024-03-29T13:39:52;4.18;;;3.75;;
4812;SDS011;2420;51.202;8.698;2024-03-29T13:42:18;4.70;;;3.83;;
4812;SDS011;2420;51.202;8.698;2024-03-29T13:44:44;4.72;;;3.90;;
4812;SDS011;2420;51.202;8.698;2024-03-29T13:47:10;6.28;;;3.78;;
4812;SDS011;2420;51.202;8.698;2024-03-29T13:49:41;4.07;;;3.45;;
4812;SDS011;2420;51.202;8.698;2024-03-29T13:52:10;4.15;;;3.42;;
4812;SDS011;2420;51.202;8.698;2024-03-29T13:54:37;4.53;;;3.72;;
4812;SDS011;2420;51.202;8.698;2024-03-29T13:57:02;4.85;;;4.32;;
4812;SDS011;2420;51.202;8.698;2024-03-29T13:59:31;5.28;;;3.88;;
4812;SDS011;2420;51.202;8.698;2024-03-29T14:01:58;4.95;;;4.10;;
4812;SDS011;2420;51.202;8.698;2024-03-29T14:04:24;4.20;;;3.80;;
4812;SDS011;2420;51.202;8.698;2024-03-29T14:06:49;4.75;;;4.00;;
4812;SDS011;2420;51.202;8.698;2024-03-29T14:09:16;6.00;;;4.40;;
4812;SDS011;2420;51.202;8.698;2024-03-29T14:11:41;5.13;;;4.38;;
4812;SDS011;2420;51.202;8.698;2024-03-29T14:14:09;5.43;;;4.15;;
4812;SDS011;2420;51.202;8.698;2024-03-29T14:16:35;4.72;;;3.97;;
4812;SDS011;2420;51.202;8.698;2024-03-29T14:19:02;4.50;;;3.88;;
4812;SDS011;2420;51.202;8.698;2024-03-29T14:21:28;10.80;;;6.55;;
4812;SDS011;2420;51.202;8.698;2024-03-29T14:23:54;5.40;;;4.03;;
4812;SDS011;2420;51.202;8.698;2024-03-29T14:26:21;5.28;;;4.00;;
4812;SDS011;2420;51.202;8.698;2024-03-29T14:28:46;5.60;;;4.57;;
4812;SDS011;2420;51.202;8.698;2024-03-29T14:31:12;5.05;;;3.95;;
4812;SDS011;2420;51.202;8.698;2024-03-29T14:33:37;5.68;;;4.88;;
4812;SDS011;2420;51.202;8.698;2024-03-29T14:36:03;4.88;;;4.38;;
4812;SDS011;2420;51.202;8.698;2024-03-29T14:38:29;4.43;;;4.00;;
4812;SDS011;2420;51.202;8.698;2024-03-29T14:40:55;6.18;;;4.63;;
4812;SDS011;2420;51.202;8.698;2024-03-29T14:43:20;4.53;;;4.13;;
4812;SDS011;2420;51.202;8.698;2024-03-29T14:45:46;5.70;;;4.60;;
4812;SDS011;2420;51.202;8.698;2024-03-29T14:48:14;4.70;;;4.20;;
4812;SDS011;2420;51.202;8.698;2024-03-29T14:50:43;6.35;;;4.20;;
4812;SDS011;2420;51.202;8.698;2024-03-29T14:53:08;5.90;;;4.25;;
4812;SDS011;2420;51.202;8.698;2024-03-29T14:55:34;5.03;;;4.15;;
4812;SDS011;2420;51.202;8.698;2024-03-29T14:58:04;5.45;;;4.38;;
4812;SDS011;2420;51.202;8.698;2024-03-29T15:00:30;4.85;;;4.05;;
4812;SDS011;2420;51.202;8.698;2024-03-29T15:02:56;5.72;;;4.55;;
4812;SDS011;2420;51.202;8.698;2024-03-29T15:05:21;4.45;;;3.60;;
4812;SDS011;2420;51.202;8.698;2024-03-29T15:07:48;6.80;;;4.32;;
4812;SDS011;2420;51.202;8.698;2024-03-29T15:10:14;4.65;;;4.20;;
4812;SDS011;2420;51.202;8.698;2024-03-29T15:12:40;4.97;;;4.00;;